createdAt,value
2019-03-27T00:01:02.221Z,1.30
2019-03-27T00:03:50.981Z,0.90
2019-03-27T00:06:20.935Z,1.27
2019-03-27T00:08:50.953Z,1.10
2019-03-27T00:11:25.857Z,1.70
2019-03-27T00:13:55.824Z,1.00
2019-03-27T00:16:27.146Z,1.30
2019-03-27T00:18:57.124Z,1.10
2019-03-27T00:21:27.214Z,1.40
2019-03-27T00:23:57.140Z,1.20
2019-03-27T00:26:30.079Z,2.00
2019-03-27T00:29:00.179Z,1.40
2019-03-27T00:31:30.255Z,1.60
2019-03-27T00:34:00.212Z,1.30
2019-03-27T00:36:30.265Z,1.70
2019-03-27T00:39:00.279Z,1.17
2019-03-27T00:41:30.295Z,2.13
2019-03-27T00:44:00.263Z,1.10
2019-03-27T00:49:13.878Z,1.40
2019-03-27T00:54:38.150Z,1.33
2019-03-27T00:57:27.163Z,0.90
2019-03-27T00:59:57.115Z,1.00
2019-03-27T01:02:45.948Z,1.20
2019-03-27T01:05:16.122Z,1.07
2019-03-27T01:08:04.975Z,1.10
2019-03-27T01:10:38.013Z,1.40
2019-03-27T01:13:07.958Z,0.90
2019-03-27T01:15:40.140Z,1.10
2019-03-27T01:18:09.660Z,1.10
2019-03-27T01:20:39.742Z,1.30
2019-03-27T01:23:09.666Z,1.00
2019-03-27T01:25:39.683Z,1.17
2019-03-27T01:28:09.641Z,1.27
2019-03-27T01:30:58.397Z,1.23
2019-03-27T01:36:53.653Z,1.40
2019-03-27T01:39:23.809Z,1.20
2019-03-27T01:41:53.999Z,1.00
2019-03-27T01:44:24.015Z,1.10
2019-03-27T01:46:53.952Z,1.03
2019-03-27T01:49:23.883Z,1.00
2019-03-27T01:51:54.118Z,1.40
2019-03-27T01:54:24.756Z,1.80
2019-03-27T01:56:54.721Z,1.40
2019-03-27T02:02:03.375Z,1.40
2019-03-27T02:10:16.929Z,1.03
2019-03-27T02:12:48.653Z,1.30
2019-03-27T02:15:37.242Z,1.50
2019-03-27T02:18:07.310Z,1.20
2019-03-27T02:20:39.861Z,1.50
2019-03-27T02:23:09.776Z,1.20
2019-03-27T02:25:39.782Z,1.47
2019-03-27T02:28:09.697Z,1.37
2019-03-27T02:30:59.102Z,2.07
2019-03-27T02:33:29.100Z,1.30
2019-03-27T02:35:59.052Z,1.10
2019-03-27T02:38:29.132Z,1.40
2019-03-27T02:40:59.087Z,1.30
2019-03-27T02:43:29.117Z,1.20
2019-03-27T02:45:59.097Z,1.40
2019-03-27T02:48:29.082Z,1.47
2019-03-27T02:50:59.075Z,1.17
2019-03-27T02:53:29.310Z,1.30
2019-03-27T02:55:59.350Z,1.20
2019-03-27T03:01:48.151Z,1.50
2019-03-27T03:04:19.633Z,1.27
2019-03-27T03:09:38.906Z,1.30
2019-03-27T03:12:08.842Z,1.20
2019-03-27T03:14:38.770Z,1.50
2019-03-27T03:17:08.781Z,1.60
2019-03-27T03:19:38.754Z,1.30
2019-03-27T03:22:08.677Z,1.60
2019-03-27T03:24:38.649Z,1.30
2019-03-27T03:27:08.970Z,1.50
2019-03-27T03:29:38.908Z,1.80
2019-03-27T03:32:28.440Z,1.63
2019-03-27T03:37:52.976Z,1.60
2019-03-27T03:40:24.666Z,1.83
2019-03-27T03:43:13.478Z,1.50
2019-03-27T03:48:27.342Z,1.63
2019-03-27T03:54:11.904Z,2.17
2019-03-27T03:57:01.970Z,1.80
2019-03-27T03:59:32.295Z,2.47
2019-03-27T04:02:23.917Z,2.20
2019-03-27T04:05:05.227Z,1.90
2019-03-27T04:07:45.994Z,2.20
2019-03-27T04:10:16.743Z,1.63
2019-03-27T04:12:46.850Z,1.90
2019-03-27T04:15:19.511Z,1.90
2019-03-27T04:17:56.705Z,1.97
2019-03-27T04:20:26.657Z,2.97
2019-03-27T04:22:56.654Z,1.90
2019-03-27T04:25:26.959Z,2.70
2019-03-27T04:27:57.234Z,2.37
2019-03-27T04:30:27.356Z,2.70
2019-03-27T04:32:58.787Z,2.20
2019-03-27T04:35:29.468Z,3.33
2019-03-27T04:37:59.482Z,2.20
2019-03-27T04:40:29.546Z,2.20
2019-03-27T04:42:59.451Z,2.47
2019-03-27T04:45:29.437Z,2.30
2019-03-27T04:48:10.234Z,1.90
2019-03-27T04:50:40.242Z,2.63
2019-03-27T04:53:10.180Z,2.30
2019-03-27T04:55:40.186Z,2.07
2019-03-27T04:58:10.181Z,1.80
2019-03-27T05:00:40.315Z,2.67
2019-03-27T05:03:10.435Z,2.73
2019-03-27T05:05:46.541Z,2.20
2019-03-27T05:08:16.616Z,2.80
2019-03-27T05:10:47.635Z,2.17
2019-03-27T05:13:17.623Z,2.23
2019-03-27T05:15:47.806Z,2.37
2019-03-27T05:18:17.824Z,2.43
2019-03-27T05:20:47.793Z,2.60
2019-03-27T05:23:17.740Z,2.50
2019-03-27T05:25:47.706Z,2.70
2019-03-27T05:28:17.686Z,2.30
2019-03-27T05:30:47.728Z,3.10
2019-03-27T05:33:17.687Z,2.90
2019-03-27T05:35:47.703Z,2.43
2019-03-27T05:38:36.432Z,3.50
2019-03-27T05:41:06.905Z,2.70
2019-03-27T05:43:36.846Z,2.87
2019-03-27T05:46:06.886Z,2.40
2019-03-27T05:51:26.023Z,2.80
2019-03-27T05:53:56.006Z,2.90
2019-03-27T05:56:45.050Z,2.80
2019-03-27T05:59:15.069Z,2.67
2019-03-27T06:01:45.127Z,2.93
2019-03-27T06:04:15.307Z,2.90
2019-03-27T06:09:35.899Z,3.13
2019-03-27T06:12:05.965Z,3.30
2019-03-27T06:14:35.916Z,3.00
2019-03-27T06:17:06.080Z,2.93
2019-03-27T06:19:54.815Z,3.40
2019-03-27T06:22:24.852Z,3.63
2019-03-27T06:24:54.739Z,2.97
2019-03-27T06:27:24.761Z,3.00
2019-03-27T06:29:54.797Z,2.70
2019-03-27T06:32:24.738Z,2.80
2019-03-27T06:34:54.768Z,2.50
2019-03-27T06:37:24.759Z,3.53
2019-03-27T06:39:55.054Z,2.50
2019-03-27T06:42:35.653Z,2.97
2019-03-27T06:45:06.396Z,2.13
2019-03-27T06:47:36.444Z,2.90
2019-03-27T06:50:07.497Z,2.63
2019-03-27T06:52:37.411Z,2.20
2019-03-27T06:55:08.245Z,2.30
2019-03-27T06:57:38.266Z,2.20
2019-03-27T07:00:10.686Z,2.60
2019-03-27T07:02:40.698Z,3.43
2019-03-27T07:05:49.682Z,2.40
2019-03-27T07:08:20.988Z,2.80
2019-03-27T07:10:50.909Z,2.60
2019-03-27T07:13:20.885Z,2.50
2019-03-27T07:15:50.829Z,3.00
2019-03-27T07:18:20.751Z,2.90
2019-03-27T07:20:50.763Z,2.80
2019-03-27T07:23:21.116Z,3.23
2019-03-27T07:25:51.066Z,1.87
2019-03-27T07:28:20.980Z,2.37
2019-03-27T07:31:09.960Z,2.43
2019-03-27T07:33:51.130Z,2.33
2019-03-27T07:39:17.663Z,2.70
2019-03-27T07:41:47.651Z,2.63
2019-03-27T07:44:20.744Z,2.60
2019-03-27T07:46:52.675Z,2.40
2019-03-27T07:49:22.625Z,2.60
2019-03-27T07:51:52.561Z,2.30
2019-03-27T07:56:58.419Z,2.37
2019-03-27T08:02:11.530Z,2.50
2019-03-27T08:07:36.131Z,2.50
2019-03-27T08:10:06.869Z,2.20
2019-03-27T08:12:36.884Z,2.30
2019-03-27T08:15:08.157Z,2.57
2019-03-27T08:17:39.771Z,2.23
2019-03-27T08:23:06.723Z,1.97
2019-03-27T08:25:36.821Z,2.70
2019-03-27T08:30:55.970Z,2.33
2019-03-27T08:33:25.901Z,2.10
2019-03-27T08:35:55.836Z,1.93
2019-03-27T08:38:25.813Z,2.50
2019-03-27T08:40:55.739Z,2.50
2019-03-27T08:43:25.802Z,2.20
2019-03-27T08:45:55.839Z,2.10
2019-03-27T08:48:27.127Z,1.60
2019-03-27T08:50:57.134Z,2.70
2019-03-27T08:53:27.137Z,2.10
2019-03-27T08:56:15.952Z,1.87
2019-03-27T08:58:57.768Z,2.00
2019-03-27T09:01:28.442Z,2.50
2019-03-27T09:03:58.392Z,1.80
2019-03-27T09:06:34.015Z,1.87
2019-03-27T09:09:00.179Z,1.90
2019-03-27T09:11:41.304Z,2.23
2019-03-27T09:14:11.261Z,1.80
2019-03-27T09:16:41.205Z,1.93
2019-03-27T09:19:11.212Z,2.10
2019-03-27T09:24:32.682Z,2.07
2019-03-27T09:27:03.190Z,2.10
2019-03-27T09:29:33.226Z,1.90
2019-03-27T09:32:03.315Z,2.10
2019-03-27T09:34:33.254Z,1.90
2019-03-27T09:37:03.176Z,1.67
2019-03-27T09:39:33.231Z,2.27
2019-03-27T09:42:21.978Z,3.03
2019-03-27T09:44:52.090Z,1.83
2019-03-27T09:47:22.035Z,1.63
2019-03-27T09:49:51.996Z,2.50
2019-03-27T09:52:21.991Z,1.93
2019-03-27T09:54:51.934Z,2.00
2019-03-27T09:57:21.867Z,2.10
2019-03-27T09:59:52.138Z,1.80
2019-03-27T10:02:33.558Z,2.07
2019-03-27T10:05:03.717Z,1.83
2019-03-27T10:07:33.683Z,1.87
2019-03-27T10:13:18.683Z,3.27
2019-03-27T10:15:48.633Z,2.13
2019-03-27T10:21:07.672Z,2.20
2019-03-27T10:23:37.769Z,1.63
2019-03-27T10:26:26.632Z,1.57
2019-03-27T10:29:20.604Z,2.70
2019-03-27T10:31:50.546Z,1.87
2019-03-27T10:34:20.500Z,2.00
2019-03-27T10:36:50.479Z,1.90
2019-03-27T10:39:20.445Z,1.57
2019-03-27T10:41:50.397Z,1.60
2019-03-27T10:44:20.365Z,1.73
2019-03-27T10:46:50.417Z,1.80
2019-03-27T10:49:20.341Z,1.50
2019-03-27T10:51:50.258Z,2.03
2019-03-27T10:54:23.942Z,2.10
2019-03-27T10:56:53.920Z,1.60
2019-03-27T11:02:02.930Z,1.53
2019-03-27T11:04:34.007Z,1.83
2019-03-27T11:07:03.932Z,1.80
2019-03-27T11:09:52.669Z,2.07
2019-03-27T11:15:22.253Z,1.27
2019-03-27T11:18:10.555Z,1.40
2019-03-27T11:20:40.601Z,1.40
2019-03-27T11:23:10.678Z,1.33
2019-03-27T11:25:40.726Z,1.90
2019-03-27T11:28:10.719Z,1.60
2019-03-27T11:36:37.800Z,1.33
2019-03-27T11:39:09.841Z,1.30
2019-03-27T11:41:39.779Z,1.87
2019-03-27T11:44:12.620Z,1.70
2019-03-27T11:46:41.415Z,1.70
2019-03-27T11:49:11.426Z,1.53
2019-03-27T11:51:41.449Z,1.70
2019-03-27T11:54:11.417Z,1.40
2019-03-27T11:56:41.507Z,1.60
2019-03-27T11:59:11.467Z,1.30
2019-03-27T12:01:43.742Z,1.77
2019-03-27T12:04:13.221Z,1.50
2019-03-27T12:06:43.564Z,1.60
2019-03-27T12:09:13.544Z,1.80
2019-03-27T12:11:43.513Z,1.40
2019-03-27T12:14:13.500Z,1.40
2019-03-27T12:16:43.466Z,1.20
2019-03-27T12:19:13.509Z,1.37
2019-03-27T12:21:43.601Z,1.50
2019-03-27T12:24:13.549Z,0.90
2019-03-27T12:26:43.490Z,0.90
2019-03-27T12:29:13.499Z,1.20
2019-03-27T12:31:43.464Z,1.00
2019-03-27T12:34:13.463Z,1.23
2019-03-27T12:36:43.429Z,1.20
2019-03-27T12:39:13.499Z,1.03
2019-03-27T12:41:43.488Z,1.40
2019-03-27T12:44:13.473Z,1.10
2019-03-27T12:46:43.467Z,1.13
2019-03-27T12:49:13.436Z,0.97
2019-03-27T12:54:18.678Z,1.40
2019-03-27T13:02:17.398Z,1.40
2019-03-27T13:04:47.461Z,1.13
2019-03-27T13:07:17.432Z,1.10
2019-03-27T13:09:47.395Z,1.10
2019-03-27T13:12:17.442Z,1.30
2019-03-27T13:14:47.510Z,1.20
2019-03-27T13:17:17.445Z,1.53
2019-03-27T13:19:47.464Z,1.60
2019-03-27T13:22:17.410Z,2.03
2019-03-27T13:24:47.361Z,1.70
2019-03-27T13:27:17.364Z,1.60
2019-03-27T13:29:47.364Z,1.70
2019-03-27T13:32:17.326Z,2.00
2019-03-27T13:34:47.492Z,1.80
2019-03-27T13:37:17.463Z,2.17
2019-03-27T13:39:47.399Z,1.80
2019-03-27T13:42:17.371Z,2.20
2019-03-27T13:44:47.345Z,2.03
2019-03-27T13:47:18.055Z,1.80
2019-03-27T13:52:24.120Z,2.40
2019-03-27T14:00:12.832Z,2.17
2019-03-27T14:02:43.370Z,1.80
2019-03-27T14:05:34.223Z,1.70
2019-03-27T14:08:14.613Z,1.90
2019-03-27T14:10:55.570Z,1.33
2019-03-27T14:13:25.668Z,2.10
2019-03-27T14:15:55.789Z,1.97
2019-03-27T14:18:25.867Z,1.30
2019-03-27T14:20:57.227Z,2.10
2019-03-27T14:26:16.219Z,1.33
2019-03-27T14:28:46.336Z,1.50
2019-03-27T14:36:42.319Z,1.50
2019-03-27T14:39:23.509Z,1.20
2019-03-27T14:42:04.585Z,1.60
2019-03-27T14:44:34.658Z,1.10
2019-03-27T14:49:53.593Z,1.00
2019-03-27T14:55:12.642Z,1.50
2019-03-27T14:57:42.628Z,1.10
2019-03-27T15:00:51.704Z,1.30
2019-03-27T15:03:22.005Z,1.40
2019-03-27T15:05:51.963Z,1.20
2019-03-27T15:08:22.192Z,1.10
2019-03-27T15:10:52.393Z,1.10
2019-03-27T15:13:42.465Z,1.50
2019-03-27T15:16:23.806Z,1.20
2019-03-27T15:18:53.939Z,1.27
2019-03-27T15:21:23.897Z,1.27
2019-03-27T15:23:53.846Z,1.67
2019-03-27T15:26:42.701Z,0.87
2019-03-27T15:32:07.263Z,1.40
2019-03-27T15:34:37.226Z,1.10
2019-03-27T15:37:07.262Z,1.30
2019-03-27T15:39:37.478Z,1.20
2019-03-27T15:42:09.259Z,1.30
2019-03-27T15:44:58.258Z,1.40
2019-03-27T15:47:28.193Z,1.70
2019-03-27T15:49:58.577Z,1.57
2019-03-27T15:55:04.778Z,1.00
2019-03-27T15:57:45.785Z,1.20
2019-03-27T16:00:17.010Z,1.27
2019-03-27T16:02:47.106Z,1.20
2019-03-27T16:05:19.408Z,1.30
2019-03-27T16:07:49.400Z,1.00
2019-03-27T16:10:19.523Z,1.40
2019-03-27T16:12:49.695Z,1.23
2019-03-27T16:15:38.446Z,1.57
2019-03-27T16:18:08.823Z,1.27
2019-03-27T16:20:38.902Z,1.27
2019-03-27T16:23:08.963Z,1.17
2019-03-27T16:25:57.568Z,1.40
2019-03-27T16:28:27.552Z,1.33
2019-03-27T16:30:57.505Z,1.33
2019-03-27T16:33:27.493Z,1.40
2019-03-27T16:41:46.571Z,1.97
2019-03-27T16:44:16.778Z,1.10
2019-03-27T16:47:05.498Z,0.80
2019-03-27T16:49:54.223Z,1.20
2019-03-27T16:52:24.225Z,1.47
2019-03-27T16:54:54.231Z,1.20
2019-03-27T16:57:24.240Z,1.20
2019-03-27T17:00:05.934Z,0.90
2019-03-27T17:02:47.381Z,1.20
2019-03-27T17:07:56.847Z,0.90
2019-03-27T17:13:08.855Z,1.00
2019-03-27T17:15:38.905Z,1.40
2019-03-27T17:18:09.006Z,1.00
2019-03-27T17:20:39.137Z,1.13
2019-03-27T17:28:39.797Z,1.10
2019-03-27T17:31:09.741Z,1.80
2019-03-27T17:33:39.730Z,1.20
2019-03-27T17:38:47.345Z,1.73
2019-03-27T17:41:17.462Z,1.27
2019-03-27T17:43:47.492Z,1.77
2019-03-27T17:46:17.559Z,1.10
2019-03-27T17:49:07.947Z,1.50
2019-03-27T17:51:39.939Z,1.27
2019-03-27T17:54:20.025Z,1.07
2019-03-27T17:56:41.614Z,1.10
2019-03-27T17:59:11.647Z,1.20
2019-03-27T18:01:41.645Z,1.30
2019-03-27T18:07:00.550Z,1.10
2019-03-27T18:12:06.170Z,1.33
2019-03-27T18:14:36.260Z,1.10
2019-03-27T18:17:06.207Z,1.20
2019-03-27T18:19:36.307Z,1.10
2019-03-27T18:22:07.989Z,1.60
2019-03-27T18:24:40.636Z,1.10
2019-03-27T18:27:10.712Z,1.50
2019-03-27T18:29:40.694Z,1.50
2019-03-27T18:32:10.777Z,1.40
2019-03-27T18:34:40.833Z,1.50
2019-03-27T18:37:29.425Z,2.03
2019-03-27T18:39:59.538Z,1.73
2019-03-27T18:42:29.605Z,2.10
2019-03-27T18:45:01.733Z,2.03
2019-03-27T18:47:31.952Z,1.90
2019-03-27T18:50:02.031Z,2.60
2019-03-27T18:52:32.094Z,2.07
2019-03-27T18:55:02.119Z,2.20
2019-03-27T18:57:32.289Z,2.33
2019-03-27T19:00:02.556Z,2.37
2019-03-27T19:02:51.312Z,2.77
2019-03-27T19:08:28.418Z,2.80
2019-03-27T19:11:15.390Z,2.90
2019-03-27T19:13:35.247Z,2.60
2019-03-27T19:16:05.199Z,2.70
2019-03-27T19:18:35.197Z,2.97
2019-03-27T19:21:05.389Z,2.50
2019-03-27T19:23:35.509Z,2.40
2019-03-27T19:26:08.208Z,2.67
2019-03-27T19:31:37.873Z,2.90
2019-03-27T19:37:02.686Z,2.80
2019-03-27T19:39:32.679Z,3.00
2019-03-27T19:44:53.401Z,3.47
2019-03-27T19:47:23.466Z,3.50
2019-03-27T19:49:53.528Z,2.87
2019-03-27T19:52:23.549Z,3.40
2019-03-27T19:54:53.558Z,3.30
2019-03-27T19:57:24.002Z,3.40
2019-03-27T19:59:54.053Z,2.50
2019-03-27T20:02:24.021Z,3.20
2019-03-27T20:07:42.911Z,3.30
2019-03-27T20:13:17.183Z,3.20
2019-03-27T20:18:41.476Z,3.10
2019-03-27T20:21:11.403Z,3.53
2019-03-27T20:23:41.401Z,3.50
2019-03-27T20:26:30.135Z,3.00
2019-03-27T20:34:19.718Z,3.30
2019-03-27T20:37:00.722Z,3.13
2019-03-27T20:39:30.782Z,3.23
2019-03-27T20:42:00.922Z,3.50
2019-03-27T20:44:33.910Z,3.70
2019-03-27T20:47:03.947Z,3.33
2019-03-27T20:49:33.883Z,3.40
2019-03-27T20:52:03.884Z,3.87
2019-03-27T20:54:55.357Z,3.40
2019-03-27T20:57:24.804Z,3.20
2019-03-27T20:59:54.821Z,3.73
2019-03-27T21:02:47.427Z,4.03
2019-03-27T21:05:18.141Z,3.20
2019-03-27T21:07:48.143Z,3.37
2019-03-27T21:10:18.705Z,3.53
2019-03-27T21:18:33.786Z,4.30
2019-03-27T21:21:03.909Z,2.80
2019-03-27T21:23:33.891Z,3.63
2019-03-27T21:26:03.820Z,2.50
2019-03-27T21:28:33.852Z,3.40
2019-03-27T21:31:03.797Z,2.90
2019-03-27T21:33:33.868Z,3.03
2019-03-27T21:36:03.874Z,3.40
2019-03-27T21:38:52.713Z,3.90
2019-03-27T21:41:22.820Z,3.17
2019-03-27T21:43:52.823Z,3.20
2019-03-27T21:46:23.326Z,3.20
2019-03-27T21:48:53.302Z,2.63
2019-03-27T21:51:23.304Z,3.43
2019-03-27T21:53:53.318Z,3.10
2019-03-27T21:56:25.579Z,3.50
2019-03-27T21:58:55.506Z,3.13
2019-03-27T22:01:27.688Z,3.03
2019-03-27T22:06:43.826Z,2.77
2019-03-27T22:09:13.789Z,3.00
2019-03-27T22:12:02.814Z,3.00
2019-03-27T22:14:51.547Z,3.23
2019-03-27T22:20:17.219Z,3.83
2019-03-27T22:22:50.164Z,3.40
2019-03-27T22:25:20.308Z,3.60
2019-03-27T22:27:50.218Z,3.10
2019-03-27T22:30:20.197Z,3.00
2019-03-27T22:32:50.119Z,2.87
2019-03-27T22:35:20.156Z,3.40
2019-03-27T22:37:50.071Z,3.10
2019-03-27T22:40:20.011Z,3.47
2019-03-27T22:48:01.762Z,2.70
2019-03-27T22:50:31.874Z,2.60
2019-03-27T22:53:01.899Z,3.10
2019-03-27T22:58:07.819Z,2.77
2019-03-27T23:00:56.861Z,2.60
2019-03-27T23:03:26.864Z,3.13
2019-03-27T23:05:56.812Z,3.00
2019-03-27T23:08:37.279Z,3.23
2019-03-27T23:11:07.856Z,2.90
2019-03-27T23:13:57.904Z,2.63
2019-03-27T23:16:27.934Z,2.77
2019-03-27T23:18:57.908Z,2.57
2019-03-27T23:21:27.844Z,2.70
2019-03-27T23:24:05.084Z,2.33
2019-03-27T23:26:54.055Z,2.53
2019-03-27T23:29:24.081Z,2.20
2019-03-27T23:31:54.034Z,2.93
2019-03-27T23:34:23.971Z,3.00
2019-03-27T23:36:54.175Z,4.10
2019-03-27T23:39:24.185Z,2.40
2019-03-27T23:41:54.279Z,2.40
2019-03-27T23:44:24.267Z,2.50
2019-03-27T23:49:43.223Z,2.50
2019-03-27T23:52:13.156Z,2.40
2019-03-27T23:54:43.107Z,2.30
2019-03-27T23:57:13.253Z,2.10
2019-03-27T23:59:43.298Z,2.60
